sensor_id;sensor_type;location;lat;lon;timestamp;pressure;altitude;pressure_sealevel;temperature;humidity
50282;BME280;36176;51.506;10.272;2023-07-08T00:01:18;99835.69;;;14.62;79.12
50282;BME280;36176;51.506;10.272;2023-07-08T00:03:47;99825.28;;;14.57;79.00
50282;BME280;36176;51.506;10.272;2023-07-08T00:06:26;99827.09;;;14.57;79.34
50282;BME280;36176;51.506;10.272;2023-07-08T00:08:54;99827.28;;;14.54;79.59
50282;BME280;36176;51.506;10.272;2023-07-08T00:11:22;99825.53;;;14.53;79.22
50282;BME280;36176;51.506;10.272;2023-07-08T00:13:49;99817.88;;;14.46;79.17
50282;BME280;36176;51.506;10.272;2023-07-08T00:16:18;99811.78;;;14.44;79.11
50282;BME280;36176;51.506;10.272;2023-07-08T00:18:46;99819.19;;;14.39;79.29
50282;BME280;36176;51.506;10.272;2023-07-08T00:21:16;99812.50;;;14.32;79.10
50282;BME280;36176;51.506;10.272;2023-07-08T00:23:45;99813.88;;;14.23;79.72
50282;BME280;36176;51.506;10.272;2023-07-08T00:26:22;99811.53;;;14.17;80.17
50282;BME280;36176;51.506;10.272;2023-07-08T00:28:51;99801.16;;;14.13;80.17
50282;BME280;36176;51.506;10.272;2023-07-08T00:31:19;99809.50;;;14.07;80.27
50282;BME280;36176;51.506;10.272;2023-07-08T00:33:53;99808.91;;;14.01;80.27
50282;BME280;36176;51.506;10.272;2023-07-08T00:36:26;99810.84;;;13.98;80.65
50282;BME280;36176;51.506;10.272;2023-07-08T00:38:54;99809.41;;;13.92;80.40
50282;BME280;36176;51.506;10.272;2023-07-08T00:41:25;99812.38;;;13.86;80.81
50282;BME280;36176;51.506;10.272;2023-07-08T00:43:55;99806.63;;;13.78;80.66
50282;BME280;36176;51.506;10.272;2023-07-08T00:51:39;99811.88;;;13.64;81.70
50282;BME280;36176;51.506;10.272;2023-07-08T00:54:15;99821.66;;;13.63;82.54
50282;BME280;36176;51.506;10.272;2023-07-08T00:56:55;99816.59;;;13.58;82.27
50282;BME280;36176;51.506;10.272;2023-07-08T00:59:29;99815.03;;;13.54;82.24
50282;BME280;36176;51.506;10.272;2023-07-08T01:01:59;99814.34;;;13.51;81.79
50282;BME280;36176;51.506;10.272;2023-07-08T01:04:52;99803.31;;;13.41;81.86
50282;BME280;36176;51.506;10.272;2023-07-08T01:07:20;99813.19;;;13.39;81.71
50282;BME280;36176;51.506;10.272;2023-07-08T01:09:54;99810.00;;;13.32;82.66
50282;BME280;36176;51.506;10.272;2023-07-08T01:12:27;99811.88;;;13.30;82.79
50282;BME280;36176;51.506;10.272;2023-07-08T01:14:59;99804.91;;;13.28;82.65
50282;BME280;36176;51.506;10.272;2023-07-08T01:17:29;99805.97;;;13.24;82.88
50282;BME280;36176;51.506;10.272;2023-07-08T01:20:00;99813.34;;;13.18;83.36
50282;BME280;36176;51.506;10.272;2023-07-08T01:22:35;99802.81;;;13.17;83.05
50282;BME280;36176;51.506;10.272;2023-07-08T01:25:03;99799.41;;;13.13;83.30
50282;BME280;36176;51.506;10.272;2023-07-08T01:27:33;99800.38;;;13.12;83.08
50282;BME280;36176;51.506;10.272;2023-07-08T01:30:03;99797.00;;;13.09;83.23
50282;BME280;36176;51.506;10.272;2023-07-08T01:32:32;99796.31;;;13.05;82.94
50282;BME280;36176;51.506;10.272;2023-07-08T01:35:02;99792.31;;;12.96;83.20
50282;BME280;36176;51.506;10.272;2023-07-08T01:37:35;99791.63;;;12.93;83.14
50282;BME280;36176;51.506;10.272;2023-07-08T01:42:48;99791.00;;;12.88;83.82
50282;BME280;36176;51.506;10.272;2023-07-08T01:45:18;99786.78;;;12.84;84.09
50282;BME280;36176;51.506;10.272;2023-07-08T01:47:53;99779.13;;;12.77;84.35
50282;BME280;36176;51.506;10.272;2023-07-08T01:50:23;99780.19;;;12.73;84.56
50282;BME280;36176;51.506;10.272;2023-07-08T01:52:52;99779.34;;;12.73;84.40
50282;BME280;36176;51.506;10.272;2023-07-08T01:55:22;99778.78;;;12.66;84.41
50282;BME280;36176;51.506;10.272;2023-07-08T01:57:54;99774.50;;;12.64;83.94
50282;BME280;36176;51.506;10.272;2023-07-08T02:00:21;99765.22;;;12.55;84.37
50282;BME280;36176;51.506;10.272;2023-07-08T02:02:50;99769.91;;;12.50;84.62
50282;BME280;36176;51.506;10.272;2023-07-08T02:05:17;99768.16;;;12.49;84.88
50282;BME280;36176;51.506;10.272;2023-07-08T02:07:45;99770.13;;;12.45;85.45
50282;BME280;36176;51.506;10.272;2023-07-08T02:10:12;99771.84;;;12.46;85.59
50282;BME280;36176;51.506;10.272;2023-07-08T02:12:39;99775.69;;;12.41;85.10
50282;BME280;36176;51.506;10.272;2023-07-08T02:15:07;99767.75;;;12.39;84.82
50282;BME280;36176;51.506;10.272;2023-07-08T02:17:35;99767.13;;;12.34;85.26
50282;BME280;36176;51.506;10.272;2023-07-08T02:20:02;99760.09;;;12.33;85.59
50282;BME280;36176;51.506;10.272;2023-07-08T02:22:30;99768.16;;;12.31;85.91
50282;BME280;36176;51.506;10.272;2023-07-08T02:24:57;99760.34;;;12.28;86.07
50282;BME280;36176;51.506;10.272;2023-07-08T02:27:24;99770.41;;;12.22;85.54
50282;BME280;36176;51.506;10.272;2023-07-08T02:29:51;99767.91;;;12.19;85.75
50282;BME280;36176;51.506;10.272;2023-07-08T02:32:18;99767.19;;;12.15;85.81
50282;BME280;36176;51.506;10.272;2023-07-08T02:34:45;99768.03;;;12.16;85.51
50282;BME280;36176;51.506;10.272;2023-07-08T02:37:14;99764.75;;;12.10;85.95
50282;BME280;36176;51.506;10.272;2023-07-08T02:39:41;99770.28;;;12.06;85.50
50282;BME280;36176;51.506;10.272;2023-07-08T02:42:08;99770.59;;;12.00;86.00
50282;BME280;36176;51.506;10.272;2023-07-08T02:44:35;99774.97;;;12.01;85.90
50282;BME280;36176;51.506;10.272;2023-07-08T02:47:02;99772.47;;;11.98;85.90
50282;BME280;36176;51.506;10.272;2023-07-08T02:49:30;99773.53;;;11.94;86.09
50282;BME280;36176;51.506;10.272;2023-07-08T02:51:57;99782.66;;;11.88;86.01
50282;BME280;36176;51.506;10.272;2023-07-08T02:54:25;99774.88;;;11.83;86.63
50282;BME280;36176;51.506;10.272;2023-07-08T02:56:53;99780.25;;;11.82;86.63
50282;BME280;36176;51.506;10.272;2023-07-08T02:59:20;99782.84;;;11.83;87.06
50282;BME280;36176;51.506;10.272;2023-07-08T03:01:48;99770.66;;;11.79;87.33
50282;BME280;36176;51.506;10.272;2023-07-08T03:04:16;99776.09;;;11.76;87.42
50282;BME280;36176;51.506;10.272;2023-07-08T03:06:45;99773.44;;;11.76;87.56
50282;BME280;36176;51.506;10.272;2023-07-08T03:09:13;99781.47;;;11.75;87.22
50282;BME280;36176;51.506;10.272;2023-07-08T03:11:40;99776.09;;;11.76;87.21
50282;BME280;36176;51.506;10.272;2023-07-08T03:14:07;99773.44;;;11.76;86.68
50282;BME280;36176;51.506;10.272;2023-07-08T03:16:34;99779.78;;;11.74;87.28
50282;BME280;36176;51.506;10.272;2023-07-08T03:19:02;99778.13;;;11.71;87.02
50282;BME280;36176;51.506;10.272;2023-07-08T03:21:29;99780.91;;;11.68;87.74
50282;BME280;36176;51.506;10.272;2023-07-08T03:23:57;99783.56;;;11.68;87.78
50282;BME280;36176;51.506;10.272;2023-07-08T03:26:25;99785.34;;;11.67;87.38
50282;BME280;36176;51.506;10.272;2023-07-08T03:28:56;99785.28;;;11.69;87.33
50282;BME280;36176;51.506;10.272;2023-07-08T03:31:23;99776.31;;;11.71;87.14
50282;BME280;36176;51.506;10.272;2023-07-08T03:33:50;99791.41;;;11.71;87.63
50282;BME280;36176;51.506;10.272;2023-07-08T03:36:18;99793.16;;;11.70;88.15
50282;BME280;36176;51.506;10.272;2023-07-08T03:38:54;99797.63;;;11.70;87.97
50282;BME280;36176;51.506;10.272;2023-07-08T03:41:23;99788.75;;;11.71;87.85
50282;BME280;36176;51.506;10.272;2023-07-08T03:43:50;99795.97;;;11.67;88.76
50282;BME280;36176;51.506;10.272;2023-07-08T03:46:19;99788.78;;;11.69;87.86
50282;BME280;36176;51.506;10.272;2023-07-08T03:48:48;99789.66;;;11.70;88.82
50282;BME280;36176;51.506;10.272;2023-07-08T03:51:30;99788.84;;;11.68;88.98
50282;BME280;36176;51.506;10.272;2023-07-08T03:53:58;99789.66;;;11.70;88.92
50282;BME280;36176;51.506;10.272;2023-07-08T03:56:26;99791.47;;;11.69;89.85
50282;BME280;36176;51.506;10.272;2023-07-08T03:58:53;99782.47;;;11.72;89.91
50282;BME280;36176;51.506;10.272;2023-07-08T04:01:24;99793.16;;;11.70;90.23
50282;BME280;36176;51.506;10.272;2023-07-08T04:03:53;99792.31;;;11.70;89.64
50282;BME280;36176;51.506;10.272;2023-07-08T04:06:20;99788.06;;;11.66;89.92
50282;BME280;36176;51.506;10.272;2023-07-08T04:09:03;99782.47;;;11.72;89.85
50282;BME280;36176;51.506;10.272;2023-07-08T04:11:30;99779.47;;;11.80;90.07
50282;BME280;36176;51.506;10.272;2023-07-08T04:13:58;99777.19;;;11.91;89.44
50282;BME280;36176;51.506;10.272;2023-07-08T04:16:31;99776.59;;;12.03;89.26
50282;BME280;36176;51.506;10.272;2023-07-08T04:18:58;99782.97;;;12.18;88.34
50282;BME280;36176;51.506;10.272;2023-07-08T04:21:26;99788.69;;;12.28;88.67
50282;BME280;36176;51.506;10.272;2023-07-08T04:23:53;99781.13;;;12.38;87.88
50282;BME280;36176;51.506;10.272;2023-07-08T04:26:20;99790.38;;;12.48;88.01
50282;BME280;36176;51.506;10.272;2023-07-08T04:28:47;99783.66;;;12.58;87.80
50282;BME280;36176;51.506;10.272;2023-07-08T04:31:14;99791.00;;;12.70;87.48
50282;BME280;36176;51.506;10.272;2023-07-08T04:33:44;99784.91;;;12.86;87.29
50282;BME280;36176;51.506;10.272;2023-07-08T04:36:12;99800.00;;;13.03;86.92
50282;BME280;36176;51.506;10.272;2023-07-08T04:38:40;99797.72;;;13.12;86.45
50282;BME280;36176;51.506;10.272;2023-07-08T04:41:09;99800.56;;;13.25;86.46
50282;BME280;36176;51.506;10.272;2023-07-08T04:43:36;99791.97;;;13.37;86.06
50282;BME280;36176;51.506;10.272;2023-07-08T04:46:04;99798.25;;;13.52;86.05
50282;BME280;36176;51.506;10.272;2023-07-08T04:48:37;99789.88;;;13.76;86.10
50282;BME280;36176;51.506;10.272;2023-07-08T04:51:04;99795.31;;;14.06;85.24
50282;BME280;36176;51.506;10.272;2023-07-08T04:53:31;99788.91;;;14.40;85.04
50282;BME280;36176;51.506;10.272;2023-07-08T04:55:59;99788.53;;;14.93;83.79
50282;BME280;36176;51.506;10.272;2023-07-08T04:58:29;99790.41;;;15.49;81.98
50282;BME280;36176;51.506;10.272;2023-07-08T05:00:56;99782.97;;;16.10;80.41
50282;BME280;36176;51.506;10.272;2023-07-08T05:03:23;99786.38;;;16.81;77.89
50282;BME280;36176;51.506;10.272;2023-07-08T05:05:50;99788.19;;;17.44;75.23
50282;BME280;36176;51.506;10.272;2023-07-08T05:08:18;99788.22;;;18.07;72.03
50282;BME280;36176;51.506;10.272;2023-07-08T05:10:45;99792.66;;;18.67;68.56
50282;BME280;36176;51.506;10.272;2023-07-08T05:13:12;99794.19;;;19.29;67.31
50282;BME280;36176;51.506;10.272;2023-07-08T05:15:39;99795.56;;;19.91;65.59
50282;BME280;36176;51.506;10.272;2023-07-08T05:18:06;99791.75;;;20.60;62.76
50282;BME280;36176;51.506;10.272;2023-07-08T05:20:33;99797.31;;;21.21;60.28
50282;BME280;36176;51.506;10.272;2023-07-08T05:23:02;99791.50;;;21.78;58.95
50282;BME280;36176;51.506;10.272;2023-07-08T05:25:31;99795.81;;;22.40;55.76
50282;BME280;36176;51.506;10.272;2023-07-08T05:27:59;99796.41;;;23.02;54.16
50282;BME280;36176;51.506;10.272;2023-07-08T05:30:27;99796.88;;;23.45;53.40
50282;BME280;36176;51.506;10.272;2023-07-08T05:32:54;99791.56;;;24.00;51.90
50282;BME280;36176;51.506;10.272;2023-07-08T05:35:21;99792.66;;;24.53;51.41
50282;BME280;36176;51.506;10.272;2023-07-08T05:37:48;99786.91;;;24.92;47.65
50282;BME280;36176;51.506;10.272;2023-07-08T05:40:15;99791.16;;;25.12;46.69
50282;BME280;36176;51.506;10.272;2023-07-08T05:42:44;99785.44;;;25.41;45.88
50282;BME280;36176;51.506;10.272;2023-07-08T05:45:11;99790.50;;;25.71;45.29
50282;BME280;36176;51.506;10.272;2023-07-08T05:47:38;99792.06;;;26.07;42.78
50282;BME280;36176;51.506;10.272;2023-07-08T05:50:06;99793.81;;;26.33;43.62
50282;BME280;36176;51.506;10.272;2023-07-08T05:52:33;99788.31;;;26.67;43.31
50282;BME280;36176;51.506;10.272;2023-07-08T05:55:00;99783.53;;;27.02;44.14
50282;BME280;36176;51.506;10.272;2023-07-08T05:57:27;99791.00;;;27.41;40.00
50282;BME280;36176;51.506;10.272;2023-07-08T05:59:55;99791.28;;;27.71;40.00
50282;BME280;36176;51.506;10.272;2023-07-08T06:02:22;99788.47;;;27.95;40.01
50282;BME280;36176;51.506;10.272;2023-07-08T06:04:52;99787.78;;;28.33;39.95
50282;BME280;36176;51.506;10.272;2023-07-08T06:07:19;99783.56;;;28.53;38.35
50282;BME280;36176;51.506;10.272;2023-07-08T06:09:47;99788.28;;;28.82;38.28
50282;BME280;36176;51.506;10.272;2023-07-08T06:12:17;99797.63;;;29.11;36.95
50282;BME280;36176;51.506;10.272;2023-07-08T06:14:44;99797.34;;;29.21;35.17
50282;BME280;36176;51.506;10.272;2023-07-08T06:17:11;99798.13;;;29.30;35.62
50282;BME280;36176;51.506;10.272;2023-07-08T06:19:38;99797.03;;;29.54;35.95
50282;BME280;36176;51.506;10.272;2023-07-08T06:22:05;99791.81;;;29.67;34.27
50282;BME280;36176;51.506;10.272;2023-07-08T06:24:52;99793.59;;;29.75;35.47
50282;BME280;36176;51.506;10.272;2023-07-08T06:27:20;99793.09;;;30.01;34.28
50282;BME280;36176;51.506;10.272;2023-07-08T06:29:47;99794.09;;;30.29;36.27
50282;BME280;36176;51.506;10.272;2023-07-08T06:32:14;99800.31;;;30.60;35.40
50282;BME280;36176;51.506;10.272;2023-07-08T06:34:41;99793.25;;;30.87;33.12
50282;BME280;36176;51.506;10.272;2023-07-08T06:37:08;99795.63;;;31.18;33.53
50282;BME280;36176;51.506;10.272;2023-07-08T06:39:36;99797.34;;;31.47;32.68
50282;BME280;36176;51.506;10.272;2023-07-08T06:42:06;99803.16;;;31.72;32.19
50282;BME280;36176;51.506;10.272;2023-07-08T06:44:33;99797.25;;;31.97;31.22
50282;BME280;36176;51.506;10.272;2023-07-08T06:47:00;99794.50;;;31.97;32.75
50282;BME280;36176;51.506;10.272;2023-07-08T06:49:27;99798.78;;;32.19;31.44
50282;BME280;36176;51.506;10.272;2023-07-08T06:51:55;99799.28;;;32.43;32.33
50282;BME280;36176;51.506;10.272;2023-07-08T06:54:24;99784.63;;;32.84;29.49
50282;BME280;36176;51.506;10.272;2023-07-08T06:56:51;99784.88;;;33.22;28.92
50282;BME280;36176;51.506;10.272;2023-07-08T06:59:19;99794.13;;;33.55;29.18
50282;BME280;36176;51.506;10.272;2023-07-08T07:01:46;99779.16;;;33.57;27.99
50282;BME280;36176;51.506;10.272;2023-07-08T07:04:13;99781.03;;;33.43;29.71
50282;BME280;36176;51.506;10.272;2023-07-08T07:06:40;99781.41;;;33.74;30.69
50282;BME280;36176;51.506;10.272;2023-07-08T07:09:07;99791.47;;;34.13;27.90
50282;BME280;36176;51.506;10.272;2023-07-08T07:11:34;99787.88;;;34.13;28.46
50282;BME280;36176;51.506;10.272;2023-07-08T07:14:02;99795.31;;;34.44;29.22
50282;BME280;36176;51.506;10.272;2023-07-08T07:16:29;99795.97;;;34.78;27.92
50282;BME280;36176;51.506;10.272;2023-07-08T07:18:56;99792.41;;;35.02;26.48
50282;BME280;36176;51.506;10.272;2023-07-08T07:21:24;99789.13;;;34.87;25.72
50282;BME280;36176;51.506;10.272;2023-07-08T07:23:51;99781.09;;;34.60;28.06
50282;BME280;36176;51.506;10.272;2023-07-08T07:26:18;99785.84;;;35.03;28.61
50282;BME280;36176;51.506;10.272;2023-07-08T07:28:45;99787.66;;;35.60;27.29
50282;BME280;36176;51.506;10.272;2023-07-08T07:31:12;99788.59;;;35.90;25.36
50282;BME280;36176;51.506;10.272;2023-07-08T07:33:39;99791.44;;;36.02;25.75
50282;BME280;36176;51.506;10.272;2023-07-08T07:36:07;99794.56;;;36.24;25.22
50282;BME280;36176;51.506;10.272;2023-07-08T07:38:34;99789.47;;;36.39;24.73
50282;BME280;36176;51.506;10.272;2023-07-08T07:41:03;99799.22;;;36.54;26.08
50282;BME280;36176;51.506;10.272;2023-07-08T07:43:34;99794.66;;;36.48;24.79
50282;BME280;36176;51.506;10.272;2023-07-08T07:46:01;99798.19;;;36.06;24.96
50282;BME280;36176;51.506;10.272;2023-07-08T07:48:30;99799.00;;;36.07;26.47
50282;BME280;36176;51.506;10.272;2023-07-08T07:50:57;99798.63;;;36.22;26.34
50282;BME280;36176;51.506;10.272;2023-07-08T07:53:24;99801.72;;;36.44;26.34
50282;BME280;36176;51.506;10.272;2023-07-08T07:55:58;99808.22;;;36.79;23.93
50282;BME280;36176;51.506;10.272;2023-07-08T07:58:26;99800.91;;;36.85;23.63
50282;BME280;36176;51.506;10.272;2023-07-08T08:00:53;99810.25;;;36.72;24.76
50282;BME280;36176;51.506;10.272;2023-07-08T08:03:21;99805.00;;;36.82;25.56
50282;BME280;36176;51.506;10.272;2023-07-08T08:05:49;99790.66;;;36.62;24.89
50282;BME280;36176;51.506;10.272;2023-07-08T08:08:17;99793.09;;;36.70;25.09
50282;BME280;36176;51.506;10.272;2023-07-08T08:10:44;99797.69;;;36.88;27.42
50282;BME280;36176;51.506;10.272;2023-07-08T08:13:12;99795.97;;;37.41;25.99
50282;BME280;36176;51.506;10.272;2023-07-08T08:15:39;99781.50;;;37.98;26.68
50282;BME280;36176;51.506;10.272;2023-07-08T08:18:06;99781.47;;;38.09;27.67
50282;BME280;36176;51.506;10.272;2023-07-08T08:20:34;99791.88;;;38.31;26.62
50282;BME280;36176;51.506;10.272;2023-07-08T08:23:01;99788.34;;;38.07;24.76
50282;BME280;36176;51.506;10.272;2023-07-08T08:25:28;99795.00;;;38.35;24.24
50282;BME280;36176;51.506;10.272;2023-07-08T08:27:55;99791.56;;;38.16;24.46
50282;BME280;36176;51.506;10.272;2023-07-08T08:30:23;99787.84;;;38.22;24.77
50282;BME280;36176;51.506;10.272;2023-07-08T08:32:50;99787.09;;;38.26;25.17
50282;BME280;36176;51.506;10.272;2023-07-08T08:35:17;99789.16;;;38.48;24.45
50282;BME280;36176;51.506;10.272;2023-07-08T08:37:44;99787.13;;;38.15;24.06
50282;BME280;36176;51.506;10.272;2023-07-08T08:40:15;99784.81;;;37.59;23.23
50282;BME280;36176;51.506;10.272;2023-07-08T08:42:51;99789.56;;;37.05;26.55
50282;BME280;36176;51.506;10.272;2023-07-08T08:45:21;99786.72;;;36.70;23.94
50282;BME280;36176;51.506;10.272;2023-07-08T08:48:00;99789.47;;;36.09;27.39
50282;BME280;36176;51.506;10.272;2023-07-08T08:51:06;99788.13;;;35.93;25.93
50282;BME280;36176;51.506;10.272;2023-07-08T08:53:36;99784.09;;;35.77;26.30
50282;BME280;36176;51.506;10.272;2023-07-08T08:56:11;99780.34;;;35.90;25.46
50282;BME280;36176;51.506;10.272;2023-07-08T08:58:52;99783.25;;;36.14;24.83
50282;BME280;36176;51.506;10.272;2023-07-08T09:01:22;99781.66;;;36.36;25.97
50282;BME280;36176;51.506;10.272;2023-07-08T09:03:57;99783.75;;;36.23;24.84
50282;BME280;36176;51.506;10.272;2023-07-08T09:06:29;99783.09;;;35.90;25.92
50282;BME280;36176;51.506;10.272;2023-07-08T09:09:01;99782.47;;;35.88;26.79
50282;BME280;36176;51.506;10.272;2023-07-08T09:11:40;99785.84;;;35.72;26.29
50282;BME280;36176;51.506;10.272;2023-07-08T09:14:24;99774.34;;;35.56;25.47
50282;BME280;36176;51.506;10.272;2023-07-08T09:17:17;99783.47;;;35.07;26.21
50282;BME280;36176;51.506;10.272;2023-07-08T09:19:54;99780.50;;;34.45;26.67
50282;BME280;36176;51.506;10.272;2023-07-08T09:22:43;99786.84;;;34.00;30.50
50282;BME280;36176;51.506;10.272;2023-07-08T09:25:20;99792.00;;;33.63;29.10
50282;BME280;36176;51.506;10.272;2023-07-08T09:27:48;99780.41;;;33.41;27.87
50282;BME280;36176;51.506;10.272;2023-07-08T09:30:18;99779.81;;;33.06;26.59
50282;BME280;36176;51.506;10.272;2023-07-08T09:32:48;99788.66;;;32.88;28.40
50282;BME280;36176;51.506;10.272;2023-07-08T09:35:38;99791.75;;;32.58;28.65
50282;BME280;36176;51.506;10.272;2023-07-08T09:38:08;99793.16;;;32.34;29.24
50282;BME280;36176;51.506;10.272;2023-07-08T09:40:36;99797.34;;;32.24;30.74
50282;BME280;36176;51.506;10.272;2023-07-08T09:45:47;99796.44;;;31.68;31.19
50282;BME280;36176;51.506;10.272;2023-07-08T09:48:17;99799.75;;;31.64;29.06
50282;BME280;36176;51.506;10.272;2023-07-08T09:50:48;99800.03;;;31.75;31.30
50282;BME280;36176;51.506;10.272;2023-07-08T09:53:16;99804.28;;;32.19;29.44
50282;BME280;36176;51.506;10.272;2023-07-08T09:55:44;99803.00;;;32.83;29.46
50282;BME280;36176;51.506;10.272;2023-07-08T09:58:30;99800.28;;;33.30;27.73
50282;BME280;36176;51.506;10.272;2023-07-08T10:01:05;99793.47;;;33.66;30.00
50282;BME280;36176;51.506;10.272;2023-07-08T10:03:34;99796.66;;;34.28;31.06
50282;BME280;36176;51.506;10.272;2023-07-08T10:06:05;99793.06;;;34.98;26.43
50282;BME280;36176;51.506;10.272;2023-07-08T10:08:40;99791.81;;;35.44;26.89
50282;BME280;36176;51.506;10.272;2023-07-08T10:11:17;99787.63;;;35.85;25.76
50282;BME280;36176;51.506;10.272;2023-07-08T10:13:53;99783.28;;;35.52;24.86
50282;BME280;36176;51.506;10.272;2023-07-08T10:16:38;99781.88;;;35.68;25.43
50282;BME280;36176;51.506;10.272;2023-07-08T10:19:13;99775.50;;;35.86;23.50
50282;BME280;36176;51.506;10.272;2023-07-08T10:25:13;99776.06;;;35.94;26.22
50282;BME280;36176;51.506;10.272;2023-07-08T10:27:51;99768.47;;;36.38;25.47
50282;BME280;36176;51.506;10.272;2023-07-08T10:30:25;99763.84;;;36.93;27.56
50282;BME280;36176;51.506;10.272;2023-07-08T10:33:11;99765.03;;;36.97;20.20
50282;BME280;36176;51.506;10.272;2023-07-08T10:36:16;99766.91;;;36.61;21.65
50282;BME280;36176;51.506;10.272;2023-07-08T10:41:58;99762.91;;;36.57;20.33
50282;BME280;36176;51.506;10.272;2023-07-08T10:44:47;99765.03;;;36.43;19.89
50282;BME280;36176;51.506;10.272;2023-07-08T10:47:36;99766.25;;;35.80;22.46
50282;BME280;36176;51.506;10.272;2023-07-08T10:55:50;99753.25;;;35.87;22.70
50282;BME280;36176;51.506;10.272;2023-07-08T10:58:27;99758.59;;;35.82;20.91
50282;BME280;36176;51.506;10.272;2023-07-08T11:06:53;99747.50;;;36.79;22.43
50282;BME280;36176;51.506;10.272;2023-07-08T11:09:27;99752.69;;;36.99;20.25
50282;BME280;36176;51.506;10.272;2023-07-08T11:12:05;99747.91;;;37.18;19.66
50282;BME280;36176;51.506;10.272;2023-07-08T11:17:27;99738.78;;;37.41;20.80
50282;BME280;36176;51.506;10.272;2023-07-08T11:20:03;99741.28;;;36.96;21.96
50282;BME280;36176;51.506;10.272;2023-07-08T11:22:44;99744.44;;;37.11;21.11
50282;BME280;36176;51.506;10.272;2023-07-08T11:25:20;99741.66;;;37.46;20.35
50282;BME280;36176;51.506;10.272;2023-07-08T11:27:52;99736.97;;;37.71;19.49
50282;BME280;36176;51.506;10.272;2023-07-08T11:30:23;99744.78;;;37.50;20.40
50282;BME280;36176;51.506;10.272;2023-07-08T11:33:06;99735.19;;;37.41;20.30
50282;BME280;36176;51.506;10.272;2023-07-08T11:35:46;99735.91;;;37.48;19.47
50282;BME280;36176;51.506;10.272;2023-07-08T11:38:17;99720.88;;;37.67;18.75
50282;BME280;36176;51.506;10.272;2023-07-08T11:43:19;99726.28;;;37.39;20.36
50282;BME280;36176;51.506;10.272;2023-07-08T11:45:49;99721.88;;;37.26;19.10
50282;BME280;36176;51.506;10.272;2023-07-08T11:48:29;99725.97;;;37.12;21.86
50282;BME280;36176;51.506;10.272;2023-07-08T11:50:58;99725.47;;;37.15;22.06
50282;BME280;36176;51.506;10.272;2023-07-08T11:56:00;99719.66;;;37.40;21.96
50282;BME280;36176;51.506;10.272;2023-07-08T11:58:49;99718.63;;;37.53;23.15
50282;BME280;36176;51.506;10.272;2023-07-08T12:03:59;99717.03;;;37.57;20.26
50282;BME280;36176;51.506;10.272;2023-07-08T12:08:56;99714.25;;;37.57;19.12
50282;BME280;36176;51.506;10.272;2023-07-08T12:11:40;99711.78;;;37.08;21.47
50282;BME280;36176;51.506;10.272;2023-07-08T12:14:10;99716.53;;;36.77;20.18
50282;BME280;36176;51.506;10.272;2023-07-08T12:16:37;99713.63;;;36.60;20.44
50282;BME280;36176;51.506;10.272;2023-07-08T12:19:06;99709.88;;;36.55;18.87
50282;BME280;36176;51.506;10.272;2023-07-08T12:21:35;99702.91;;;36.52;20.31
50282;BME280;36176;51.506;10.272;2023-07-08T12:24:06;99711.13;;;36.59;20.09
50282;BME280;36176;51.506;10.272;2023-07-08T12:26:34;99698.50;;;36.63;18.71
50282;BME280;36176;51.506;10.272;2023-07-08T12:29:01;99707.44;;;36.35;18.29
50282;BME280;36176;51.506;10.272;2023-07-08T12:31:29;99700.31;;;36.27;20.54
50282;BME280;36176;51.506;10.272;2023-07-08T12:33:59;99707.34;;;36.53;21.16
50282;BME280;36176;51.506;10.272;2023-07-08T12:36:28;99693.25;;;36.61;20.74
50282;BME280;36176;51.506;10.272;2023-07-08T12:38:58;99684.84;;;37.03;20.70
50282;BME280;36176;51.506;10.272;2023-07-08T12:41:32;99695.69;;;37.29;19.81
50282;BME280;36176;51.506;10.272;2023-07-08T12:44:02;99690.59;;;37.37;21.94
50282;BME280;36176;51.506;10.272;2023-07-08T12:46:29;99692.31;;;37.38;20.12
50282;BME280;36176;51.506;10.272;2023-07-08T12:48:57;99685.00;;;37.20;20.55
50282;BME280;36176;51.506;10.272;2023-07-08T12:51:27;99682.72;;;37.29;22.55
50282;BME280;36176;51.506;10.272;2023-07-08T12:53:57;99685.25;;;37.31;21.14
50282;BME280;36176;51.506;10.272;2023-07-08T12:56:24;99679.31;;;37.03;20.54
50282;BME280;36176;51.506;10.272;2023-07-08T12:58:56;99680.03;;;36.87;23.43
50282;BME280;36176;51.506;10.272;2023-07-08T13:01:28;99675.00;;;36.60;23.27
50282;BME280;36176;51.506;10.272;2023-07-08T13:04:00;99675.41;;;36.46;19.73
50282;BME280;36176;51.506;10.272;2023-07-08T13:06:30;99679.34;;;36.26;20.67
50282;BME280;36176;51.506;10.272;2023-07-08T13:09:05;99668.81;;;36.35;22.33
50282;BME280;36176;51.506;10.272;2023-07-08T13:11:36;99670.63;;;36.53;20.65
50282;BME280;36176;51.506;10.272;2023-07-08T13:14:06;99667.44;;;36.68;22.07
50282;BME280;36176;51.506;10.272;2023-07-08T13:16:34;99668.06;;;36.81;22.12
50282;BME280;36176;51.506;10.272;2023-07-08T13:19:02;99665.78;;;36.78;21.28
50282;BME280;36176;51.506;10.272;2023-07-08T13:21:30;99657.50;;;36.78;23.15
50282;BME280;36176;51.506;10.272;2023-07-08T13:23:58;99661.44;;;36.82;21.25
50282;BME280;36176;51.506;10.272;2023-07-08T13:26:29;99657.63;;;36.83;22.99
50282;BME280;36176;51.506;10.272;2023-07-08T13:29:03;99650.38;;;36.82;25.43
50282;BME280;36176;51.506;10.272;2023-07-08T13:31:34;99652.44;;;36.75;20.27
50282;BME280;36176;51.506;10.272;2023-07-08T13:34:16;99654.63;;;36.73;21.29
50282;BME280;36176;51.506;10.272;2023-07-08T13:36:46;99666.38;;;36.69;21.50
50282;BME280;36176;51.506;10.272;2023-07-08T13:39:21;99655.19;;;36.75;21.79
50282;BME280;36176;51.506;10.272;2023-07-08T13:41:51;99657.38;;;36.73;21.01
50282;BME280;36176;51.506;10.272;2023-07-08T13:44:18;99658.75;;;36.52;20.24
50282;BME280;36176;51.506;10.272;2023-07-08T13:46:53;99653.38;;;35.85;22.12
50282;BME280;36176;51.506;10.272;2023-07-08T13:49:29;99662.34;;;35.81;21.54